sensor_id;sensor_type;location;lat;lon;timestamp;temperature;humidity
702;DHT22;334;48.808;9.222;2023-03-12T00:00:15;5.40;1.00
702;DHT22;334;48.808;9.222;2023-03-12T00:01:21;5.40;1.00
702;DHT22;334;48.808;9.222;2023-03-12T00:02:23;5.40;1.00
702;DHT22;334;48.808;9.222;2023-03-12T00:03:27;5.40;1.00
702;DHT22;334;48.808;9.222;2023-03-12T00:04:30;5.40;1.00
702;DHT22;334;48.808;9.222;2023-03-12T00:05:35;5.40;1.00
702;DHT22;334;48.808;9.222;2023-03-12T00:06:37;5.40;1.00
702;DHT22;334;48.808;9.222;2023-03-12T00:07:39;5.40;1.00
702;DHT22;334;48.808;9.222;2023-03-12T00:08:41;5.40;1.00
702;DHT22;334;48.808;9.222;2023-03-12T00:09:43;5.40;1.00
702;DHT22;334;48.808;9.222;2023-03-12T00:10:46;5.30;1.00
702;DHT22;334;48.808;9.222;2023-03-12T00:11:48;5.30;1.00
702;DHT22;334;48.808;9.222;2023-03-12T00:12:50;5.30;1.00
702;DHT22;334;48.808;9.222;2023-03-12T00:13:54;5.30;1.00
702;DHT22;334;48.808;9.222;2023-03-12T00:14:58;5.30;1.00
702;DHT22;334;48.808;9.222;2023-03-12T00:16:08;5.30;1.00
702;DHT22;334;48.808;9.222;2023-03-12T00:17:13;5.30;1.00
702;DHT22;334;48.808;9.222;2023-03-12T00:18:17;5.30;1.00
702;DHT22;334;48.808;9.222;2023-03-12T00:19:20;5.20;1.00
702;DHT22;334;48.808;9.222;2023-03-12T00:20:22;5.20;1.00
702;DHT22;334;48.808;9.222;2023-03-12T00:21:24;5.20;1.00
702;DHT22;334;48.808;9.222;2023-03-12T00:22:28;5.20;1.00
702;DHT22;334;48.808;9.222;2023-03-12T00:23:31;5.20;1.00
702;DHT22;334;48.808;9.222;2023-03-12T00:24:33;5.20;1.00
702;DHT22;334;48.808;9.222;2023-03-12T00:25:38;5.30;1.00
702;DHT22;334;48.808;9.222;2023-03-12T00:26:42;5.30;1.00
702;DHT22;334;48.808;9.222;2023-03-12T00:27:44;5.20;1.00
702;DHT22;334;48.808;9.222;2023-03-12T00:28:47;5.30;1.00
702;DHT22;334;48.808;9.222;2023-03-12T00:29:51;5.30;1.00
702;DHT22;334;48.808;9.222;2023-03-12T00:30:52;5.20;1.00
702;DHT22;334;48.808;9.222;2023-03-12T00:31:57;5.30;1.00
702;DHT22;334;48.808;9.222;2023-03-12T00:32:59;5.30;1.00
702;DHT22;334;48.808;9.222;2023-03-12T00:34:02;5.30;1.00
702;DHT22;334;48.808;9.222;2023-03-12T00:35:05;5.30;1.00
702;DHT22;334;48.808;9.222;2023-03-12T00:36:08;5.30;1.00
702;DHT22;334;48.808;9.222;2023-03-12T00:37:09;5.20;1.00
702;DHT22;334;48.808;9.222;2023-03-12T00:38:11;5.20;1.00
702;DHT22;334;48.808;9.222;2023-03-12T00:39:13;5.20;1.00
702;DHT22;334;48.808;9.222;2023-03-12T00:40:15;5.20;1.00
702;DHT22;334;48.808;9.222;2023-03-12T00:41:19;5.20;1.00
702;DHT22;334;48.808;9.222;2023-03-12T00:42:21;5.20;1.00
702;DHT22;334;48.808;9.222;2023-03-12T00:43:23;5.20;1.00
702;DHT22;334;48.808;9.222;2023-03-12T00:44:25;5.20;1.00
702;DHT22;334;48.808;9.222;2023-03-12T00:45:28;5.20;1.00
702;DHT22;334;48.808;9.222;2023-03-12T00:46:33;5.20;1.00
702;DHT22;334;48.808;9.222;2023-03-12T00:47:35;5.20;1.00
702;DHT22;334;48.808;9.222;2023-03-12T00:48:39;5.20;1.00
702;DHT22;334;48.808;9.222;2023-03-12T00:49:41;5.20;1.00
702;DHT22;334;48.808;9.222;2023-03-12T00:50:43;5.20;1.00
702;DHT22;334;48.808;9.222;2023-03-12T00:51:47;5.40;1.00
702;DHT22;334;48.808;9.222;2023-03-12T00:52:51;5.20;1.00
702;DHT22;334;48.808;9.222;2023-03-12T00:53:53;5.20;1.00
702;DHT22;334;48.808;9.222;2023-03-12T00:54:57;5.20;1.00
702;DHT22;334;48.808;9.222;2023-03-12T00:56:00;5.20;1.00
702;DHT22;334;48.808;9.222;2023-03-12T00:57:03;5.30;1.00
702;DHT22;334;48.808;9.222;2023-03-12T00:58:05;5.10;1.00
702;DHT22;334;48.808;9.222;2023-03-12T00:59:11;5.10;1.00
702;DHT22;334;48.808;9.222;2023-03-12T01:00:13;5.10;1.00
702;DHT22;334;48.808;9.222;2023-03-12T01:01:15;5.00;1.00
702;DHT22;334;48.808;9.222;2023-03-12T01:02:17;5.00;1.00
702;DHT22;334;48.808;9.222;2023-03-12T01:03:19;5.00;1.00
702;DHT22;334;48.808;9.222;2023-03-12T01:04:21;5.00;1.00
702;DHT22;334;48.808;9.222;2023-03-12T01:05:24;5.00;1.00
702;DHT22;334;48.808;9.222;2023-03-12T01:06:27;5.00;1.00
702;DHT22;334;48.808;9.222;2023-03-12T01:07:28;4.90;1.00
702;DHT22;334;48.808;9.222;2023-03-12T01:08:30;5.00;1.00
702;DHT22;334;48.808;9.222;2023-03-12T01:09:32;5.00;1.00
702;DHT22;334;48.808;9.222;2023-03-12T01:10:36;5.00;1.00
702;DHT22;334;48.808;9.222;2023-03-12T01:11:42;5.00;1.00
702;DHT22;334;48.808;9.222;2023-03-12T01:12:44;5.00;1.00
702;DHT22;334;48.808;9.222;2023-03-12T01:13:46;5.00;1.00
702;DHT22;334;48.808;9.222;2023-03-12T01:14:51;5.00;1.00
702;DHT22;334;48.808;9.222;2023-03-12T01:15:53;5.10;1.00
702;DHT22;334;48.808;9.222;2023-03-12T01:16:55;5.10;1.00
702;DHT22;334;48.808;9.222;2023-03-12T01:17:57;5.10;1.00
702;DHT22;334;48.808;9.222;2023-03-12T01:19:00;5.10;1.00
702;DHT22;334;48.808;9.222;2023-03-12T01:20:03;5.10;1.00
702;DHT22;334;48.808;9.222;2023-03-12T01:21:06;5.10;1.00
702;DHT22;334;48.808;9.222;2023-03-12T01:22:08;5.00;1.00
702;DHT22;334;48.808;9.222;2023-03-12T01:23:12;5.00;1.00
702;DHT22;334;48.808;9.222;2023-03-12T01:24:14;5.00;1.00
702;DHT22;334;48.808;9.222;2023-03-12T01:25:18;5.00;1.00
702;DHT22;334;48.808;9.222;2023-03-12T01:26:20;5.00;1.00
702;DHT22;334;48.808;9.222;2023-03-12T01:27:22;5.00;1.00
702;DHT22;334;48.808;9.222;2023-03-12T01:28:26;5.00;1.00
702;DHT22;334;48.808;9.222;2023-03-12T01:29:29;5.00;1.00
702;DHT22;334;48.808;9.222;2023-03-12T01:30:32;5.00;1.00
702;DHT22;334;48.808;9.222;2023-03-12T01:31:33;5.00;1.00
702;DHT22;334;48.808;9.222;2023-03-12T01:32:39;5.00;1.00
702;DHT22;334;48.808;9.222;2023-03-12T01:33:41;5.00;1.00
702;DHT22;334;48.808;9.222;2023-03-12T01:34:43;5.00;1.00
702;DHT22;334;48.808;9.222;2023-03-12T01:35:46;5.00;1.00
702;DHT22;334;48.808;9.222;2023-03-12T01:36:48;5.00;1.00
702;DHT22;334;48.808;9.222;2023-03-12T01:37:50;5.00;1.00
702;DHT22;334;48.808;9.222;2023-03-12T01:38:55;5.00;1.00
702;DHT22;334;48.808;9.222;2023-03-12T01:39:58;4.90;1.00
702;DHT22;334;48.808;9.222;2023-03-12T01:40:59;5.00;1.00
702;DHT22;334;48.808;9.222;2023-03-12T01:42:02;5.00;1.00
702;DHT22;334;48.808;9.222;2023-03-12T01:43:34;4.90;1.00
702;DHT22;334;48.808;9.222;2023-03-12T01:44:57;4.90;1.00
702;DHT22;334;48.808;9.222;2023-03-12T01:46:26;4.90;1.00
702;DHT22;334;48.808;9.222;2023-03-12T01:47:29;4.90;1.00
702;DHT22;334;48.808;9.222;2023-03-12T01:48:43;4.90;1.00
702;DHT22;334;48.808;9.222;2023-03-12T01:49:47;4.90;1.00
702;DHT22;334;48.808;9.222;2023-03-12T01:50:51;4.90;1.00
702;DHT22;334;48.808;9.222;2023-03-12T01:52:06;5.00;1.00
702;DHT22;334;48.808;9.222;2023-03-12T01:53:10;4.90;1.00
702;DHT22;334;48.808;9.222;2023-03-12T01:54:18;4.90;1.00
702;DHT22;334;48.808;9.222;2023-03-12T01:55:20;4.70;1.00
702;DHT22;334;48.808;9.222;2023-03-12T01:56:25;4.90;1.00
702;DHT22;334;48.808;9.222;2023-03-12T01:58:55;4.90;1.00
702;DHT22;334;48.808;9.222;2023-03-12T02:00:07;4.90;1.00
702;DHT22;334;48.808;9.222;2023-03-12T02:01:09;4.90;1.00
702;DHT22;334;48.808;9.222;2023-03-12T02:02:12;4.90;1.00
702;DHT22;334;48.808;9.222;2023-03-12T02:03:15;4.90;1.00
702;DHT22;334;48.808;9.222;2023-03-12T02:04:21;4.90;1.00
702;DHT22;334;48.808;9.222;2023-03-12T02:05:35;4.90;1.00
702;DHT22;334;48.808;9.222;2023-03-12T02:07:04;4.90;1.00
702;DHT22;334;48.808;9.222;2023-03-12T02:08:08;4.90;1.00
702;DHT22;334;48.808;9.222;2023-03-12T02:09:10;4.80;1.00
702;DHT22;334;48.808;9.222;2023-03-12T02:10:14;4.80;1.00
702;DHT22;334;48.808;9.222;2023-03-12T02:11:16;4.80;1.00
702;DHT22;334;48.808;9.222;2023-03-12T02:12:18;4.80;1.00
702;DHT22;334;48.808;9.222;2023-03-12T02:13:20;4.70;1.00
702;DHT22;334;48.808;9.222;2023-03-12T02:14:22;4.70;1.00
702;DHT22;334;48.808;9.222;2023-03-12T02:15:46;4.70;1.00
702;DHT22;334;48.808;9.222;2023-03-12T02:16:49;4.70;1.00
702;DHT22;334;48.808;9.222;2023-03-12T02:17:53;4.70;1.00
702;DHT22;334;48.808;9.222;2023-03-12T02:18:56;4.70;1.00
702;DHT22;334;48.808;9.222;2023-03-12T02:20:25;4.70;1.00
702;DHT22;334;48.808;9.222;2023-03-12T02:21:32;4.80;1.00
702;DHT22;334;48.808;9.222;2023-03-12T02:22:38;4.80;1.00
702;DHT22;334;48.808;9.222;2023-03-12T02:24:06;4.80;1.00
702;DHT22;334;48.808;9.222;2023-03-12T02:26:40;4.80;1.00
702;DHT22;334;48.808;9.222;2023-03-12T02:27:42;4.80;1.00
702;DHT22;334;48.808;9.222;2023-03-12T02:28:44;4.70;1.00
702;DHT22;334;48.808;9.222;2023-03-12T02:29:50;4.70;1.00
702;DHT22;334;48.808;9.222;2023-03-12T02:30:57;4.70;1.00
702;DHT22;334;48.808;9.222;2023-03-12T02:32:00;4.70;1.00
702;DHT22;334;48.808;9.222;2023-03-12T02:33:06;4.70;1.00
702;DHT22;334;48.808;9.222;2023-03-12T02:34:09;4.70;1.00
702;DHT22;334;48.808;9.222;2023-03-12T02:35:13;4.70;1.00
702;DHT22;334;48.808;9.222;2023-03-12T02:36:15;4.80;1.00
702;DHT22;334;48.808;9.222;2023-03-12T02:37:18;4.80;1.00
702;DHT22;334;48.808;9.222;2023-03-12T02:39:32;4.80;1.00
702;DHT22;334;48.808;9.222;2023-03-12T02:40:38;4.80;1.00
702;DHT22;334;48.808;9.222;2023-03-12T02:41:49;4.80;1.00
702;DHT22;334;48.808;9.222;2023-03-12T02:42:52;4.80;1.00
702;DHT22;334;48.808;9.222;2023-03-12T02:44:15;4.80;1.00
702;DHT22;334;48.808;9.222;2023-03-12T02:45:19;4.80;1.00
702;DHT22;334;48.808;9.222;2023-03-12T02:46:22;4.80;1.00
702;DHT22;334;48.808;9.222;2023-03-12T02:47:26;4.70;1.00
702;DHT22;334;48.808;9.222;2023-03-12T02:48:28;4.70;1.00
702;DHT22;334;48.808;9.222;2023-03-12T02:49:32;4.70;1.00
702;DHT22;334;48.808;9.222;2023-03-12T02:50:34;4.70;1.00
702;DHT22;334;48.808;9.222;2023-03-12T02:51:36;4.80;1.00
702;DHT22;334;48.808;9.222;2023-03-12T02:52:38;4.80;1.00
702;DHT22;334;48.808;9.222;2023-03-12T02:53:40;4.80;1.00
702;DHT22;334;48.808;9.222;2023-03-12T02:54:42;4.80;1.00
702;DHT22;334;48.808;9.222;2023-03-12T02:55:44;4.80;1.00
702;DHT22;334;48.808;9.222;2023-03-12T02:56:45;4.80;1.00
702;DHT22;334;48.808;9.222;2023-03-12T02:57:47;4.60;1.00
702;DHT22;334;48.808;9.222;2023-03-12T02:58:49;4.70;1.00
702;DHT22;334;48.808;9.222;2023-03-12T02:59:51;4.70;1.00
702;DHT22;334;48.808;9.222;2023-03-12T03:00:52;4.70;1.00
702;DHT22;334;48.808;9.222;2023-03-12T03:01:57;4.80;1.00
702;DHT22;334;48.808;9.222;2023-03-12T03:03:00;4.80;1.00
702;DHT22;334;48.808;9.222;2023-03-12T03:04:04;4.80;1.00
702;DHT22;334;48.808;9.222;2023-03-12T03:05:07;4.80;1.00
702;DHT22;334;48.808;9.222;2023-03-12T03:06:09;4.70;1.00
702;DHT22;334;48.808;9.222;2023-03-12T03:07:10;4.60;1.00
702;DHT22;334;48.808;9.222;2023-03-12T03:08:12;4.70;1.00
702;DHT22;334;48.808;9.222;2023-03-12T03:09:14;4.60;1.00
702;DHT22;334;48.808;9.222;2023-03-12T03:10:16;4.60;1.00
702;DHT22;334;48.808;9.222;2023-03-12T03:11:18;4.60;1.00
702;DHT22;334;48.808;9.222;2023-03-12T03:12:24;4.70;1.00
702;DHT22;334;48.808;9.222;2023-03-12T03:13:26;4.60;1.00
702;DHT22;334;48.808;9.222;2023-03-12T03:14:28;4.60;1.00
702;DHT22;334;48.808;9.222;2023-03-12T03:15:29;4.60;1.00
702;DHT22;334;48.808;9.222;2023-03-12T03:16:33;4.60;1.00
702;DHT22;334;48.808;9.222;2023-03-12T03:17:35;4.60;1.00
702;DHT22;334;48.808;9.222;2023-03-12T03:18:39;4.50;1.00
702;DHT22;334;48.808;9.222;2023-03-12T03:19:43;4.60;1.00
702;DHT22;334;48.808;9.222;2023-03-12T03:20:44;4.50;1.00
702;DHT22;334;48.808;9.222;2023-03-12T03:21:46;4.50;1.00
702;DHT22;334;48.808;9.222;2023-03-12T03:22:48;4.50;1.00
702;DHT22;334;48.808;9.222;2023-03-12T03:23:50;4.50;1.00
702;DHT22;334;48.808;9.222;2023-03-12T03:24:53;4.50;1.00
702;DHT22;334;48.808;9.222;2023-03-12T03:25:55;4.50;1.00
702;DHT22;334;48.808;9.222;2023-03-12T03:26:57;4.60;1.00
702;DHT22;334;48.808;9.222;2023-03-12T03:27:59;4.60;1.00
702;DHT22;334;48.808;9.222;2023-03-12T03:29:01;4.60;1.00
702;DHT22;334;48.808;9.222;2023-03-12T03:30:05;4.60;1.00
702;DHT22;334;48.808;9.222;2023-03-12T03:31:07;4.60;1.00
702;DHT22;334;48.808;9.222;2023-03-12T03:32:09;4.60;1.00
702;DHT22;334;48.808;9.222;2023-03-12T03:33:11;4.30;1.00
702;DHT22;334;48.808;9.222;2023-03-12T03:34:13;4.60;1.00
702;DHT22;334;48.808;9.222;2023-03-12T03:35:15;4.50;1.00
702;DHT22;334;48.808;9.222;2023-03-12T03:36:17;4.60;1.00
702;DHT22;334;48.808;9.222;2023-03-12T03:37:21;4.50;1.00
702;DHT22;334;48.808;9.222;2023-03-12T03:38:22;4.50;1.00
702;DHT22;334;48.808;9.222;2023-03-12T03:39:25;4.50;1.00
702;DHT22;334;48.808;9.222;2023-03-12T03:40:29;4.50;1.00
702;DHT22;334;48.808;9.222;2023-03-12T03:41:31;4.50;1.00
702;DHT22;334;48.808;9.222;2023-03-12T03:42:38;4.50;1.00
702;DHT22;334;48.808;9.222;2023-03-12T03:43:40;4.40;1.00
702;DHT22;334;48.808;9.222;2023-03-12T03:44:42;4.40;1.00
702;DHT22;334;48.808;9.222;2023-03-12T03:45:44;4.40;1.00
702;DHT22;334;48.808;9.222;2023-03-12T03:46:45;4.40;1.00
702;DHT22;334;48.808;9.222;2023-03-12T03:47:48;4.30;1.00
702;DHT22;334;48.808;9.222;2023-03-12T03:48:50;4.30;1.00
702;DHT22;334;48.808;9.222;2023-03-12T03:49:52;4.30;1.00
702;DHT22;334;48.808;9.222;2023-03-12T03:51:01;4.30;1.00
702;DHT22;334;48.808;9.222;2023-03-12T03:52:05;4.50;1.00
702;DHT22;334;48.808;9.222;2023-03-12T03:53:09;4.30;1.00
702;DHT22;334;48.808;9.222;2023-03-12T03:54:11;4.20;1.00
702;DHT22;334;48.808;9.222;2023-03-12T03:55:12;4.20;1.00
702;DHT22;334;48.808;9.222;2023-03-12T03:56:15;4.20;1.00
702;DHT22;334;48.808;9.222;2023-03-12T03:57:20;4.20;1.00
702;DHT22;334;48.808;9.222;2023-03-12T03:58:21;4.20;1.00
702;DHT22;334;48.808;9.222;2023-03-12T03:59:23;4.20;1.00
702;DHT22;334;48.808;9.222;2023-03-12T04:00:26;4.20;1.00
702;DHT22;334;48.808;9.222;2023-03-12T04:01:28;4.20;1.00
702;DHT22;334;48.808;9.222;2023-03-12T04:02:31;4.20;1.00
702;DHT22;334;48.808;9.222;2023-03-12T04:03:33;4.30;1.00
702;DHT22;334;48.808;9.222;2023-03-12T04:04:36;4.30;1.00
702;DHT22;334;48.808;9.222;2023-03-12T04:05:37;4.30;1.00
702;DHT22;334;48.808;9.222;2023-03-12T04:06:39;4.30;1.00
702;DHT22;334;48.808;9.222;2023-03-12T04:07:41;4.30;1.00
702;DHT22;334;48.808;9.222;2023-03-12T04:08:43;4.30;1.00
702;DHT22;334;48.808;9.222;2023-03-12T04:09:50;4.40;1.00
702;DHT22;334;48.808;9.222;2023-03-12T04:10:52;4.40;1.00
702;DHT22;334;48.808;9.222;2023-03-12T04:11:54;4.40;1.00
702;DHT22;334;48.808;9.222;2023-03-12T04:12:57;4.40;1.00
702;DHT22;334;48.808;9.222;2023-03-12T04:13:59;4.50;1.00
702;DHT22;334;48.808;9.222;2023-03-12T04:15:01;4.50;1.00
702;DHT22;334;48.808;9.222;2023-03-12T04:16:02;4.50;1.00
702;DHT22;334;48.808;9.222;2023-03-12T04:17:06;4.50;1.00
702;DHT22;334;48.808;9.222;2023-03-12T04:18:10;4.50;1.00
702;DHT22;334;48.808;9.222;2023-03-12T04:19:12;4.50;1.00
702;DHT22;334;48.808;9.222;2023-03-12T04:20:14;4.50;1.00
702;DHT22;334;48.808;9.222;2023-03-12T04:21:16;4.50;1.00
702;DHT22;334;48.808;9.222;2023-03-12T04:22:17;4.50;1.00
702;DHT22;334;48.808;9.222;2023-03-12T04:23:20;4.50;1.00
702;DHT22;334;48.808;9.222;2023-03-12T04:24:22;4.50;1.00
702;DHT22;334;48.808;9.222;2023-03-12T04:25:23;4.60;1.00
702;DHT22;334;48.808;9.222;2023-03-12T04:26:25;4.60;1.00
702;DHT22;334;48.808;9.222;2023-03-12T04:27:27;4.60;1.00
702;DHT22;334;48.808;9.222;2023-03-12T04:28:30;4.50;1.00
702;DHT22;334;48.808;9.222;2023-03-12T04:29:33;4.50;1.00
702;DHT22;334;48.808;9.222;2023-03-12T04:30:36;4.50;1.00
702;DHT22;334;48.808;9.222;2023-03-12T04:31:39;4.50;1.00
702;DHT22;334;48.808;9.222;2023-03-12T04:32:41;4.40;1.00
702;DHT22;334;48.808;9.222;2023-03-12T04:33:43;4.40;1.00
702;DHT22;334;48.808;9.222;2023-03-12T04:34:45;4.40;1.00
702;DHT22;334;48.808;9.222;2023-03-12T04:35:53;4.40;1.00
702;DHT22;334;48.808;9.222;2023-03-12T04:36:55;4.40;1.00
702;DHT22;334;48.808;9.222;2023-03-12T04:37:59;4.40;1.00
702;DHT22;334;48.808;9.222;2023-03-12T04:39:02;4.40;1.00
702;DHT22;334;48.808;9.222;2023-03-12T04:40:09;4.40;1.00
702;DHT22;334;48.808;9.222;2023-03-12T04:41:13;4.40;1.00
702;DHT22;334;48.808;9.222;2023-03-12T04:42:16;4.30;1.00
702;DHT22;334;48.808;9.222;2023-03-12T04:43:18;4.30;1.00
702;DHT22;334;48.808;9.222;2023-03-12T04:44:21;4.40;1.00
702;DHT22;334;48.808;9.222;2023-03-12T04:45:23;4.40;1.00
702;DHT22;334;48.808;9.222;2023-03-12T04:46:27;4.40;1.00
702;DHT22;334;48.808;9.222;2023-03-12T04:47:31;4.40;1.00
702;DHT22;334;48.808;9.222;2023-03-12T04:48:33;4.40;1.00
702;DHT22;334;48.808;9.222;2023-03-12T04:49:37;4.40;1.00
702;DHT22;334;48.808;9.222;2023-03-12T04:50:39;4.40;1.00
702;DHT22;334;48.808;9.222;2023-03-12T04:51:41;4.40;1.00
702;DHT22;334;48.808;9.222;2023-03-12T04:52:43;4.40;1.00
702;DHT22;334;48.808;9.222;2023-03-12T04:53:45;4.40;1.00
702;DHT22;334;48.808;9.222;2023-03-12T04:54:47;4.40;1.00
702;DHT22;334;48.808;9.222;2023-03-12T04:55:52;4.40;1.00
702;DHT22;334;48.808;9.222;2023-03-12T04:56:53;4.50;1.00
702;DHT22;334;48.808;9.222;2023-03-12T04:57:55;4.40;1.00
702;DHT22;334;48.808;9.222;2023-03-12T04:58:57;4.50;1.00
702;DHT22;334;48.808;9.222;2023-03-12T04:59:58;4.50;1.00
702;DHT22;334;48.808;9.222;2023-03-12T05:01:04;4.50;1.00
702;DHT22;334;48.808;9.222;2023-03-12T05:02:08;4.50;1.00
702;DHT22;334;48.808;9.222;2023-03-12T05:03:10;4.50;1.00
702;DHT22;334;48.808;9.222;2023-03-12T05:04:14;4.50;1.00
702;DHT22;334;48.808;9.222;2023-03-12T05:05:15;4.50;1.00
702;DHT22;334;48.808;9.222;2023-03-12T05:06:20;4.50;1.00
702;DHT22;334;48.808;9.222;2023-03-12T05:07:23;4.50;1.00
702;DHT22;334;48.808;9.222;2023-03-12T05:08:27;4.50;1.00
702;DHT22;334;48.808;9.222;2023-03-12T05:09:30;4.60;1.00
702;DHT22;334;48.808;9.222;2023-03-12T05:10:33;4.60;1.00
702;DHT22;334;48.808;9.222;2023-03-12T05:11:36;4.60;1.00
702;DHT22;334;48.808;9.222;2023-03-12T05:12:40;4.60;1.00
702;DHT22;334;48.808;9.222;2023-03-12T05:13:42;4.70;1.00
702;DHT22;334;48.808;9.222;2023-03-12T05:14:44;4.70;1.00
702;DHT22;334;48.808;9.222;2023-03-12T05:15:46;4.80;1.00
702;DHT22;334;48.808;9.222;2023-03-12T05:16:51;4.70;1.00
702;DHT22;334;48.808;9.222;2023-03-12T05:17:56;4.70;1.00
702;DHT22;334;48.808;9.222;2023-03-12T05:19:00;4.70;1.00
702;DHT22;334;48.808;9.222;2023-03-12T05:20:03;4.70;1.00
702;DHT22;334;48.808;9.222;2023-03-12T05:21:12;4.70;1.00
702;DHT22;334;48.808;9.222;2023-03-12T05:22:14;4.70;1.00
702;DHT22;334;48.808;9.222;2023-03-12T05:23:16;4.60;1.00
702;DHT22;334;48.808;9.222;2023-03-12T05:24:17;4.60;1.00
702;DHT22;334;48.808;9.222;2023-03-12T05:25:20;4.60;1.00
702;DHT22;334;48.808;9.222;2023-03-12T05:26:25;4.60;1.00
702;DHT22;334;48.808;9.222;2023-03-12T05:27:27;4.60;1.00
702;DHT22;334;48.808;9.222;2023-03-12T05:28:32;4.60;1.00
702;DHT22;334;48.808;9.222;2023-03-12T05:29:34;4.80;1.00
702;DHT22;334;48.808;9.222;2023-03-12T05:30:38;4.50;1.00
702;DHT22;334;48.808;9.222;2023-03-12T05:31:42;4.60;1.00
702;DHT22;334;48.808;9.222;2023-03-12T05:32:46;4.50;1.00
702;DHT22;334;48.808;9.222;2023-03-12T05:33:48;4.50;1.00
702;DHT22;334;48.808;9.222;2023-03-12T05:34:54;4.50;1.00
702;DHT22;334;48.808;9.222;2023-03-12T05:35:56;4.50;1.00
702;DHT22;334;48.808;9.222;2023-03-12T05:36:58;4.50;1.00
702;DHT22;334;48.808;9.222;2023-03-12T05:37:59;4.50;1.00
702;DHT22;334;48.808;9.222;2023-03-12T05:39:02;4.60;1.00
702;DHT22;334;48.808;9.222;2023-03-12T05:40:04;4.60;1.00
702;DHT22;334;48.808;9.222;2023-03-12T05:41:17;4.60;1.00
702;DHT22;334;48.808;9.222;2023-03-12T05:42:19;4.60;1.00
702;DHT22;334;48.808;9.222;2023-03-12T05:43:21;4.60;1.00
702;DHT22;334;48.808;9.222;2023-03-12T05:44:24;4.70;1.00
702;DHT22;334;48.808;9.222;2023-03-12T05:45:26;4.70;1.00
702;DHT22;334;48.808;9.222;2023-03-12T05:46:28;4.70;1.00
702;DHT22;334;48.808;9.222;2023-03-12T05:47:30;4.80;1.00
702;DHT22;334;48.808;9.222;2023-03-12T05:48:32;4.80;1.00
702;DHT22;334;48.808;9.222;2023-03-12T05:49:35;4.90;1.00
702;DHT22;334;48.808;9.222;2023-03-12T05:50:38;4.90;1.00
702;DHT22;334;48.808;9.222;2023-03-12T05:51:40;4.90;1.00
702;DHT22;334;48.808;9.222;2023-03-12T05:52:45;4.90;1.00
702;DHT22;334;48.808;9.222;2023-03-12T05:53:48;5.00;1.00
702;DHT22;334;48.808;9.222;2023-03-12T05:54:53;5.00;1.00
702;DHT22;334;48.808;9.222;2023-03-12T05:56:01;5.00;1.00
702;DHT22;334;48.808;9.222;2023-03-12T05:57:04;5.10;1.00
702;DHT22;334;48.808;9.222;2023-03-12T05:58:06;5.10;1.00
702;DHT22;334;48.808;9.222;2023-03-12T05:59:09;5.10;1.00
702;DHT22;334;48.808;9.222;2023-03-12T06:00:13;5.10;1.00
702;DHT22;334;48.808;9.222;2023-03-12T06:01:20;5.20;1.00
702;DHT22;334;48.808;9.222;2023-03-12T06:02:23;5.20;1.00
702;DHT22;334;48.808;9.222;2023-03-12T06:03:25;5.30;1.00
702;DHT22;334;48.808;9.222;2023-03-12T06:04:28;5.30;1.00
702;DHT22;334;48.808;9.222;2023-03-12T06:05:31;5.30;1.00
702;DHT22;334;48.808;9.222;2023-03-12T06:06:35;5.30;1.00
702;DHT22;334;48.808;9.222;2023-03-12T06:07:37;5.30;1.00
702;DHT22;334;48.808;9.222;2023-03-12T06:08:40;5.30;1.00
702;DHT22;334;48.808;9.222;2023-03-12T06:09:43;5.40;1.00
702;DHT22;334;48.808;9.222;2023-03-12T06:10:48;5.40;1.00
702;DHT22;334;48.808;9.222;2023-03-12T06:11:51;5.40;1.00
702;DHT22;334;48.808;9.222;2023-03-12T06:12:53;5.40;1.00
702;DHT22;334;48.808;9.222;2023-03-12T06:13:56;5.40;1.00
702;DHT22;334;48.808;9.222;2023-03-12T06:14:57;5.40;1.00
702;DHT22;334;48.808;9.222;2023-03-12T06:16:32;5.30;1.00
702;DHT22;334;48.808;9.222;2023-03-12T06:17:35;5.30;1.00
702;DHT22;334;48.808;9.222;2023-03-12T06:18:37;5.20;1.00
702;DHT22;334;48.808;9.222;2023-03-12T06:19:38;5.20;1.00
702;DHT22;334;48.808;9.222;2023-03-12T06:20:40;5.10;1.00
702;DHT22;334;48.808;9.222;2023-03-12T06:21:43;5.10;1.00
702;DHT22;334;48.808;9.222;2023-03-12T06:22:45;5.10;1.00
702;DHT22;334;48.808;9.222;2023-03-12T06:23:47;5.10;1.00
702;DHT22;334;48.808;9.222;2023-03-12T06:24:49;5.00;1.00
702;DHT22;334;48.808;9.222;2023-03-12T06:25:51;5.00;1.00
702;DHT22;334;48.808;9.222;2023-03-12T06:26:54;5.00;1.00
702;DHT22;334;48.808;9.222;2023-03-12T06:27:56;5.00;1.00
702;DHT22;334;48.808;9.222;2023-03-12T06:29:00;5.10;1.00
702;DHT22;334;48.808;9.222;2023-03-12T06:30:03;5.00;1.00
702;DHT22;334;48.808;9.222;2023-03-12T06:31:06;5.00;1.00
702;DHT22;334;48.808;9.222;2023-03-12T06:32:08;4.90;1.00
702;DHT22;334;48.808;9.222;2023-03-12T06:33:10;4.90;1.00
702;DHT22;334;48.808;9.222;2023-03-12T06:34:11;4.90;1.00
702;DHT22;334;48.808;9.222;2023-03-12T06:35:13;4.90;1.00
702;DHT22;334;48.808;9.222;2023-03-12T06:36:15;4.90;1.00
702;DHT22;334;48.808;9.222;2023-03-12T06:37:17;4.90;1.00
702;DHT22;334;48.808;9.222;2023-03-12T06:38:19;4.80;1.00
702;DHT22;334;48.808;9.222;2023-03-12T06:39:21;4.80;1.00
702;DHT22;334;48.808;9.222;2023-03-12T06:40:23;4.80;1.00
702;DHT22;334;48.808;9.222;2023-03-12T06:41:26;4.80;1.00
702;DHT22;334;48.808;9.222;2023-03-12T06:42:35;4.80;1.00
702;DHT22;334;48.808;9.222;2023-03-12T06:43:38;4.80;1.00
702;DHT22;334;48.808;9.222;2023-03-12T06:44:40;4.80;1.00
702;DHT22;334;48.808;9.222;2023-03-12T06:45:42;4.80;1.00
702;DHT22;334;48.808;9.222;2023-03-12T06:46:43;4.70;1.00
702;DHT22;334;48.808;9.222;2023-03-12T06:47:45;4.80;1.00
702;DHT22;334;48.808;9.222;2023-03-12T06:48:47;4.80;1.00
702;DHT22;334;48.808;9.222;2023-03-12T06:49:52;4.70;1.00
702;DHT22;334;48.808;9.222;2023-03-12T06:50:53;4.70;1.00
702;DHT22;334;48.808;9.222;2023-03-12T06:51:56;4.80;1.00
702;DHT22;334;48.808;9.222;2023-03-12T06:52:58;4.80;1.00
702;DHT22;334;48.808;9.222;2023-03-12T06:54:00;4.80;1.00
702;DHT22;334;48.808;9.222;2023-03-12T06:55:03;4.80;1.00
702;DHT22;334;48.808;9.222;2023-03-12T06:56:07;4.70;1.00
702;DHT22;334;48.808;9.222;2023-03-12T06:57:08;4.70;1.00
702;DHT22;334;48.808;9.222;2023-03-12T06:58:12;4.60;1.00
702;DHT22;334;48.808;9.222;2023-03-12T06:59:13;4.60;1.00
702;DHT22;334;48.808;9.222;2023-03-12T07:00:19;4.50;1.00
702;DHT22;334;48.808;9.222;2023-03-12T07:01:24;4.50;1.00
702;DHT22;334;48.808;9.222;2023-03-12T07:02:26;4.50;1.00
702;DHT22;334;48.808;9.222;2023-03-12T07:03:27;4.50;1.00
702;DHT22;334;48.808;9.222;2023-03-12T07:04:31;4.50;1.00
702;DHT22;334;48.808;9.222;2023-03-12T07:05:33;4.50;1.00
702;DHT22;334;48.808;9.222;2023-03-12T07:06:35;4.50;1.00
702;DHT22;334;48.808;9.222;2023-03-12T07:07:37;4.50;1.00
702;DHT22;334;48.808;9.222;2023-03-12T07:08:39;4.50;1.00
702;DHT22;334;48.808;9.222;2023-03-12T07:09:41;4.50;1.00
702;DHT22;334;48.808;9.222;2023-03-12T07:10:44;4.50;1.00
702;DHT22;334;48.808;9.222;2023-03-12T07:11:45;4.50;1.00
702;DHT22;334;48.808;9.222;2023-03-12T07:12:47;4.60;1.00
702;DHT22;334;48.808;9.222;2023-03-12T07:13:49;4.60;1.00
702;DHT22;334;48.808;9.222;2023-03-12T07:14:52;4.60;1.00
702;DHT22;334;48.808;9.222;2023-03-12T07:15:53;4.70;1.00
702;DHT22;334;48.808;9.222;2023-03-12T07:16:59;4.70;1.00
702;DHT22;334;48.808;9.222;2023-03-12T07:18:07;4.70;1.00
702;DHT22;334;48.808;9.222;2023-03-12T07:19:13;4.70;1.00
702;DHT22;334;48.808;9.222;2023-03-12T07:20:16;4.70;1.00
702;DHT22;334;48.808;9.222;2023-03-12T07:21:19;4.70;1.00
702;DHT22;334;48.808;9.222;2023-03-12T07:22:24;4.70;1.00
702;DHT22;334;48.808;9.222;2023-03-12T07:23:26;4.80;1.00
702;DHT22;334;48.808;9.222;2023-03-12T07:24:28;4.80;1.00
702;DHT22;334;48.808;9.222;2023-03-12T07:25:37;4.70;1.00
702;DHT22;334;48.808;9.222;2023-03-12T07:26:39;4.80;1.00
702;DHT22;334;48.808;9.222;2023-03-12T07:27:41;4.80;1.00